sensor_id;sensor_type;location;lat;lon;timestamp;temperature;humidity
69436;SHT31;56625;54.322;18.582;2023-06-10T00:00:01;17.45;63.28
69436;SHT31;56625;54.322;18.582;2023-06-10T00:02:29;17.47;62.87
69436;SHT31;56625;54.322;18.582;2023-06-10T00:04:57;17.48;62.96
69436;SHT31;56625;54.322;18.582;2023-06-10T00:07:26;17.48;62.73
69436;SHT31;56625;54.322;18.582;2023-06-10T00:09:54;17.49;62.84
69436;SHT31;56625;54.322;18.582;2023-06-10T00:12:22;17.48;62.44
69436;SHT31;56625;54.322;18.582;2023-06-10T00:14:50;17.48;62.35
69436;SHT31;56625;54.322;18.582;2023-06-10T00:17:19;17.48;61.86
69436;SHT31;56625;54.322;18.582;2023-06-10T00:19:47;17.49;61.67
69436;SHT31;56625;54.322;18.582;2023-06-10T00:22:15;17.51;61.86
69436;SHT31;56625;54.322;18.582;2023-06-10T00:24:44;17.50;61.87
69436;SHT31;56625;54.322;18.582;2023-06-10T00:27:12;17.49;62.36
69436;SHT31;56625;54.322;18.582;2023-06-10T00:29:40;17.48;62.78
69436;SHT31;56625;54.322;18.582;2023-06-10T00:32:08;17.45;63.18
69436;SHT31;56625;54.322;18.582;2023-06-10T00:34:36;17.42;63.32
69436;SHT31;56625;54.322;18.582;2023-06-10T00:37:04;17.39;63.61
69436;SHT31;56625;54.322;18.582;2023-06-10T00:39:32;17.35;63.96
69436;SHT31;56625;54.322;18.582;2023-06-10T00:42:00;17.31;64.68
69436;SHT31;56625;54.322;18.582;2023-06-10T00:44:28;17.26;64.99
69436;SHT31;56625;54.322;18.582;2023-06-10T00:46:55;17.22;65.31
69436;SHT31;56625;54.322;18.582;2023-06-10T00:49:24;17.17;65.81
69436;SHT31;56625;54.322;18.582;2023-06-10T00:51:52;17.12;66.62
69436;SHT31;56625;54.322;18.582;2023-06-10T00:54:21;17.07;67.32
69436;SHT31;56625;54.322;18.582;2023-06-10T00:56:49;17.01;67.75
69436;SHT31;56625;54.322;18.582;2023-06-10T00:59:17;16.96;68.02
69436;SHT31;56625;54.322;18.582;2023-06-10T01:01:46;16.91;68.15
69436;SHT31;56625;54.322;18.582;2023-06-10T01:04:16;16.88;68.63
69436;SHT31;56625;54.322;18.582;2023-06-10T01:09:29;16.78;69.51
69436;SHT31;56625;54.322;18.582;2023-06-10T01:12:05;16.74;69.41
69436;SHT31;56625;54.322;18.582;2023-06-10T01:14:47;16.70;69.96
69436;SHT31;56625;54.322;18.582;2023-06-10T01:17:16;16.66;70.32
69436;SHT31;56625;54.322;18.582;2023-06-10T01:19:53;16.62;70.37
69436;SHT31;56625;54.322;18.582;2023-06-10T01:22:25;16.59;70.32
69436;SHT31;56625;54.322;18.582;2023-06-10T01:25:04;16.56;70.53
69436;SHT31;56625;54.322;18.582;2023-06-10T01:27:34;16.52;70.95
69436;SHT31;56625;54.322;18.582;2023-06-10T01:30:09;16.49;71.05
69436;SHT31;56625;54.322;18.582;2023-06-10T01:32:47;16.45;71.24
69436;SHT31;56625;54.322;18.582;2023-06-10T01:35:19;16.43;71.04
69436;SHT31;56625;54.322;18.582;2023-06-10T01:37:53;16.41;71.11
69436;SHT31;56625;54.322;18.582;2023-06-10T01:40:25;16.39;70.99
69436;SHT31;56625;54.322;18.582;2023-06-10T01:42:54;16.36;71.07
69436;SHT31;56625;54.322;18.582;2023-06-10T01:45:22;16.34;70.90
69436;SHT31;56625;54.322;18.582;2023-06-10T01:47:50;16.33;70.81
69436;SHT31;56625;54.322;18.582;2023-06-10T01:50:18;16.30;70.67
69436;SHT31;56625;54.322;18.582;2023-06-10T01:52:46;16.27;70.69
69436;SHT31;56625;54.322;18.582;2023-06-10T01:55:14;16.26;70.81
69436;SHT31;56625;54.322;18.582;2023-06-10T01:57:42;16.25;70.95
69436;SHT31;56625;54.322;18.582;2023-06-10T02:00:10;16.23;71.27
69436;SHT31;56625;54.322;18.582;2023-06-10T02:02:39;16.20;71.36
69436;SHT31;56625;54.322;18.582;2023-06-10T02:05:07;16.18;71.48
69436;SHT31;56625;54.322;18.582;2023-06-10T02:07:35;16.16;71.57
69436;SHT31;56625;54.322;18.582;2023-06-10T02:10:04;16.13;71.66
69436;SHT31;56625;54.322;18.582;2023-06-10T02:12:36;16.11;71.72
69436;SHT31;56625;54.322;18.582;2023-06-10T02:15:04;16.08;71.71
69436;SHT31;56625;54.322;18.582;2023-06-10T02:17:32;16.05;71.62
69436;SHT31;56625;54.322;18.582;2023-06-10T02:20:01;16.04;71.57
69436;SHT31;56625;54.322;18.582;2023-06-10T02:22:31;16.02;71.62
69436;SHT31;56625;54.322;18.582;2023-06-10T02:25:00;16.00;71.48
69436;SHT31;56625;54.322;18.582;2023-06-10T02:27:28;15.98;71.36
69436;SHT31;56625;54.322;18.582;2023-06-10T02:29:56;15.97;71.17
69436;SHT31;56625;54.322;18.582;2023-06-10T02:32:24;15.96;71.04
69436;SHT31;56625;54.322;18.582;2023-06-10T02:34:53;15.97;70.67
69436;SHT31;56625;54.322;18.582;2023-06-10T02:37:21;15.97;70.38
69436;SHT31;56625;54.322;18.582;2023-06-10T02:39:49;15.97;70.24
69436;SHT31;56625;54.322;18.582;2023-06-10T02:42:17;15.98;70.20
69436;SHT31;56625;54.322;18.582;2023-06-10T02:44:45;15.97;70.29
69436;SHT31;56625;54.322;18.582;2023-06-10T02:47:13;15.97;70.35
69436;SHT31;56625;54.322;18.582;2023-06-10T02:49:41;15.99;70.42
69436;SHT31;56625;54.322;18.582;2023-06-10T02:52:08;16.14;70.30
69436;SHT31;56625;54.322;18.582;2023-06-10T02:54:38;16.35;69.78
69436;SHT31;56625;54.322;18.582;2023-06-10T02:57:07;16.55;69.13
69436;SHT31;56625;54.322;18.582;2023-06-10T02:59:35;16.70;68.61
69436;SHT31;56625;54.322;18.582;2023-06-10T03:02:03;16.83;68.22
69436;SHT31;56625;54.322;18.582;2023-06-10T03:04:31;16.96;67.76
69436;SHT31;56625;54.322;18.582;2023-06-10T03:06:59;17.00;67.30
69436;SHT31;56625;54.322;18.582;2023-06-10T03:09:31;17.01;67.21
69436;SHT31;56625;54.322;18.582;2023-06-10T03:11:59;17.03;67.04
69436;SHT31;56625;54.322;18.582;2023-06-10T03:14:28;17.10;66.88
69436;SHT31;56625;54.322;18.582;2023-06-10T03:16:56;17.21;66.27
69436;SHT31;56625;54.322;18.582;2023-06-10T03:19:24;17.33;65.48
69436;SHT31;56625;54.322;18.582;2023-06-10T03:21:57;17.45;64.61
69436;SHT31;56625;54.322;18.582;2023-06-10T03:24:42;17.65;63.98
69436;SHT31;56625;54.322;18.582;2023-06-10T03:27:11;17.85;62.89
69436;SHT31;56625;54.322;18.582;2023-06-10T03:29:39;18.06;61.92
69436;SHT31;56625;54.322;18.582;2023-06-10T03:32:07;18.22;61.01
69436;SHT31;56625;54.322;18.582;2023-06-10T03:34:35;18.35;60.11
69436;SHT31;56625;54.322;18.582;2023-06-10T03:37:03;18.49;59.48
69436;SHT31;56625;54.322;18.582;2023-06-10T03:39:32;18.56;57.96
69436;SHT31;56625;54.322;18.582;2023-06-10T03:42:00;18.67;57.39
69436;SHT31;56625;54.322;18.582;2023-06-10T03:44:28;18.78;56.32
69436;SHT31;56625;54.322;18.582;2023-06-10T03:46:56;18.89;55.78
69436;SHT31;56625;54.322;18.582;2023-06-10T03:49:25;19.01;55.48
69436;SHT31;56625;54.322;18.582;2023-06-10T03:51:54;19.11;54.44
69436;SHT31;56625;54.322;18.582;2023-06-10T03:54:22;19.22;54.20
69436;SHT31;56625;54.322;18.582;2023-06-10T03:56:50;19.36;53.91
69436;SHT31;56625;54.322;18.582;2023-06-10T03:59:18;19.45;52.76
69436;SHT31;56625;54.322;18.582;2023-06-10T04:01:46;19.44;52.50
69436;SHT31;56625;54.322;18.582;2023-06-10T04:04:14;19.46;52.42
69436;SHT31;56625;54.322;18.582;2023-06-10T04:06:45;19.42;52.24
69436;SHT31;56625;54.322;18.582;2023-06-10T04:09:14;19.46;51.88
69436;SHT31;56625;54.322;18.582;2023-06-10T04:11:41;19.55;51.67
69436;SHT31;56625;54.322;18.582;2023-06-10T04:14:09;19.57;51.18
69436;SHT31;56625;54.322;18.582;2023-06-10T04:16:37;19.58;51.65
69436;SHT31;56625;54.322;18.582;2023-06-10T04:19:06;19.66;51.57
69436;SHT31;56625;54.322;18.582;2023-06-10T04:21:33;19.69;51.02
69436;SHT31;56625;54.322;18.582;2023-06-10T04:24:03;19.69;51.36
69436;SHT31;56625;54.322;18.582;2023-06-10T04:26:31;19.68;50.61
69436;SHT31;56625;54.322;18.582;2023-06-10T04:28:59;19.64;50.87
69436;SHT31;56625;54.322;18.582;2023-06-10T04:31:27;19.59;50.84
69436;SHT31;56625;54.322;18.582;2023-06-10T04:33:55;19.47;51.05
69436;SHT31;56625;54.322;18.582;2023-06-10T04:36:23;19.44;51.36
69436;SHT31;56625;54.322;18.582;2023-06-10T04:38:51;19.52;51.24
69436;SHT31;56625;54.322;18.582;2023-06-10T04:41:19;19.55;51.08
69436;SHT31;56625;54.322;18.582;2023-06-10T04:43:47;19.59;51.21
69436;SHT31;56625;54.322;18.582;2023-06-10T04:46:15;19.49;51.22
69436;SHT31;56625;54.322;18.582;2023-06-10T04:48:43;19.42;51.68
69436;SHT31;56625;54.322;18.582;2023-06-10T04:51:14;19.37;51.38
69436;SHT31;56625;54.322;18.582;2023-06-10T04:53:42;19.26;51.87
69436;SHT31;56625;54.322;18.582;2023-06-10T04:56:10;19.27;51.92
69436;SHT31;56625;54.322;18.582;2023-06-10T04:58:38;19.25;51.44
69436;SHT31;56625;54.322;18.582;2023-06-10T05:01:06;19.17;51.31
69436;SHT31;56625;54.322;18.582;2023-06-10T05:03:34;19.07;51.66
69436;SHT31;56625;54.322;18.582;2023-06-10T05:06:02;19.04;51.67
69436;SHT31;56625;54.322;18.582;2023-06-10T05:08:30;19.05;51.71
69436;SHT31;56625;54.322;18.582;2023-06-10T05:10:58;19.06;51.74
69436;SHT31;56625;54.322;18.582;2023-06-10T05:13:26;19.01;51.45
69436;SHT31;56625;54.322;18.582;2023-06-10T05:15:54;19.00;51.83
69436;SHT31;56625;54.322;18.582;2023-06-10T05:18:22;19.00;51.78
69436;SHT31;56625;54.322;18.582;2023-06-10T05:20:50;18.88;51.52
69436;SHT31;56625;54.322;18.582;2023-06-10T05:23:18;18.76;51.60
69436;SHT31;56625;54.322;18.582;2023-06-10T05:25:46;18.73;51.86
69436;SHT31;56625;54.322;18.582;2023-06-10T05:28:15;18.73;51.86
69436;SHT31;56625;54.322;18.582;2023-06-10T05:30:43;18.70;51.25
69436;SHT31;56625;54.322;18.582;2023-06-10T05:33:11;18.73;51.36
69436;SHT31;56625;54.322;18.582;2023-06-10T05:35:39;18.84;51.71
69436;SHT31;56625;54.322;18.582;2023-06-10T05:38:08;18.97;51.76
69436;SHT31;56625;54.322;18.582;2023-06-10T05:40:36;18.98;51.66
69436;SHT31;56625;54.322;18.582;2023-06-10T05:43:04;18.86;51.70
69436;SHT31;56625;54.322;18.582;2023-06-10T05:45:32;18.79;52.00
69436;SHT31;56625;54.322;18.582;2023-06-10T05:48:00;18.72;51.87
69436;SHT31;56625;54.322;18.582;2023-06-10T05:50:28;18.68;51.93
69436;SHT31;56625;54.322;18.582;2023-06-10T05:52:56;18.72;52.20
69436;SHT31;56625;54.322;18.582;2023-06-10T05:55:25;18.80;51.48
69436;SHT31;56625;54.322;18.582;2023-06-10T05:57:59;18.75;50.95
69436;SHT31;56625;54.322;18.582;2023-06-10T06:00:28;18.68;51.12
69436;SHT31;56625;54.322;18.582;2023-06-10T06:02:55;18.61;51.47
69436;SHT31;56625;54.322;18.582;2023-06-10T06:05:25;18.68;51.60
69436;SHT31;56625;54.322;18.582;2023-06-10T06:07:53;18.75;51.51
69436;SHT31;56625;54.322;18.582;2023-06-10T06:10:21;18.75;51.21
69436;SHT31;56625;54.322;18.582;2023-06-10T06:12:49;18.72;51.41
69436;SHT31;56625;54.322;18.582;2023-06-10T06:15:16;18.72;51.80
69436;SHT31;56625;54.322;18.582;2023-06-10T06:17:45;18.65;52.27
69436;SHT31;56625;54.322;18.582;2023-06-10T06:20:13;18.68;52.39
69436;SHT31;56625;54.322;18.582;2023-06-10T06:22:44;18.80;52.02
69436;SHT31;56625;54.322;18.582;2023-06-10T06:25:12;18.91;51.77
69436;SHT31;56625;54.322;18.582;2023-06-10T06:27:40;18.93;51.47
69436;SHT31;56625;54.322;18.582;2023-06-10T06:30:08;18.93;51.58
69436;SHT31;56625;54.322;18.582;2023-06-10T06:32:37;18.91;51.63
69436;SHT31;56625;54.322;18.582;2023-06-10T06:35:05;18.85;51.71
69436;SHT31;56625;54.322;18.582;2023-06-10T06:37:39;18.88;51.79
69436;SHT31;56625;54.322;18.582;2023-06-10T06:40:10;18.87;51.93
69436;SHT31;56625;54.322;18.582;2023-06-10T06:42:56;18.75;51.97
69436;SHT31;56625;54.322;18.582;2023-06-10T06:50:41;18.74;52.20
69436;SHT31;56625;54.322;18.582;2023-06-10T06:54:42;18.84;51.33
69436;SHT31;56625;54.322;18.582;2023-06-10T06:57:20;18.92;51.98
69436;SHT31;56625;54.322;18.582;2023-06-10T06:59:52;19.00;51.99
69436;SHT31;56625;54.322;18.582;2023-06-10T07:02:20;18.99;51.88
69436;SHT31;56625;54.322;18.582;2023-06-10T07:04:48;19.04;51.93
69436;SHT31;56625;54.322;18.582;2023-06-10T07:07:17;19.13;52.33
69436;SHT31;56625;54.322;18.582;2023-06-10T07:09:45;19.09;51.77
69436;SHT31;56625;54.322;18.582;2023-06-10T07:12:20;19.03;51.81
69436;SHT31;56625;54.322;18.582;2023-06-10T07:14:51;18.97;51.74
69436;SHT31;56625;54.322;18.582;2023-06-10T07:17:19;18.99;52.60
69436;SHT31;56625;54.322;18.582;2023-06-10T07:19:47;19.00;52.77
69436;SHT31;56625;54.322;18.582;2023-06-10T07:22:15;19.11;52.43
69436;SHT31;56625;54.322;18.582;2023-06-10T07:24:43;19.16;51.44
69436;SHT31;56625;54.322;18.582;2023-06-10T07:27:11;19.20;51.28
69436;SHT31;56625;54.322;18.582;2023-06-10T07:29:39;19.29;50.90
69436;SHT31;56625;54.322;18.582;2023-06-10T07:32:07;19.31;51.56
69436;SHT31;56625;54.322;18.582;2023-06-10T07:34:35;19.25;51.23
69436;SHT31;56625;54.322;18.582;2023-06-10T07:37:03;19.20;51.49
69436;SHT31;56625;54.322;18.582;2023-06-10T07:39:31;19.21;51.87
69436;SHT31;56625;54.322;18.582;2023-06-10T07:41:59;19.22;51.45
69436;SHT31;56625;54.322;18.582;2023-06-10T07:44:28;19.21;51.21
69436;SHT31;56625;54.322;18.582;2023-06-10T07:46:55;19.25;51.19
69436;SHT31;56625;54.322;18.582;2023-06-10T07:49:25;19.42;50.95
69436;SHT31;56625;54.322;18.582;2023-06-10T07:51:54;19.52;49.68
69436;SHT31;56625;54.322;18.582;2023-06-10T07:54:23;19.52;49.06
69436;SHT31;56625;54.322;18.582;2023-06-10T07:56:53;19.42;48.67
69436;SHT31;56625;54.322;18.582;2023-06-10T07:59:21;19.42;49.24
69436;SHT31;56625;54.322;18.582;2023-06-10T08:01:49;19.48;48.24
69436;SHT31;56625;54.322;18.582;2023-06-10T08:04:17;19.54;48.92
69436;SHT31;56625;54.322;18.582;2023-06-10T08:06:45;19.62;48.69
69436;SHT31;56625;54.322;18.582;2023-06-10T08:09:13;19.65;48.46
69436;SHT31;56625;54.322;18.582;2023-06-10T08:11:41;19.67;48.01
69436;SHT31;56625;54.322;18.582;2023-06-10T08:14:09;19.74;48.21
69436;SHT31;56625;54.322;18.582;2023-06-10T08:16:39;19.79;47.64
69436;SHT31;56625;54.322;18.582;2023-06-10T08:19:07;19.75;48.31
69436;SHT31;56625;54.322;18.582;2023-06-10T08:21:39;19.82;48.16
69436;SHT31;56625;54.322;18.582;2023-06-10T08:24:19;19.91;47.59
69436;SHT31;56625;54.322;18.582;2023-06-10T08:26:47;19.98;47.09
69436;SHT31;56625;54.322;18.582;2023-06-10T08:29:15;20.03;46.81
69436;SHT31;56625;54.322;18.582;2023-06-10T08:31:43;20.09;47.61
69436;SHT31;56625;54.322;18.582;2023-06-10T08:34:12;20.12;47.58
69436;SHT31;56625;54.322;18.582;2023-06-10T08:36:40;20.17;47.67
69436;SHT31;56625;54.322;18.582;2023-06-10T08:39:08;20.32;47.12
69436;SHT31;56625;54.322;18.582;2023-06-10T08:41:37;20.46;46.91
69436;SHT31;56625;54.322;18.582;2023-06-10T08:44:17;20.55;46.33
69436;SHT31;56625;54.322;18.582;2023-06-10T08:46:55;20.64;46.16
69436;SHT31;56625;54.322;18.582;2023-06-10T08:49:29;20.73;44.87
69436;SHT31;56625;54.322;18.582;2023-06-10T08:52:02;20.71;44.90
69436;SHT31;56625;54.322;18.582;2023-06-10T08:54:31;20.58;44.51
69436;SHT31;56625;54.322;18.582;2023-06-10T08:57:05;20.55;44.38
69436;SHT31;56625;54.322;18.582;2023-06-10T08:59:34;20.56;44.97
69436;SHT31;56625;54.322;18.582;2023-06-10T09:02:02;20.56;45.24
69436;SHT31;56625;54.322;18.582;2023-06-10T09:04:32;20.65;45.63
69436;SHT31;56625;54.322;18.582;2023-06-10T09:07:01;20.58;46.39
69436;SHT31;56625;54.322;18.582;2023-06-10T09:09:30;20.67;46.75
69436;SHT31;56625;54.322;18.582;2023-06-10T09:12:00;20.62;45.55
69436;SHT31;56625;54.322;18.582;2023-06-10T09:14:28;20.63;46.17
69436;SHT31;56625;54.322;18.582;2023-06-10T09:16:55;20.65;46.05
69436;SHT31;56625;54.322;18.582;2023-06-10T09:19:25;20.68;46.73
69436;SHT31;56625;54.322;18.582;2023-06-10T09:21:55;20.71;46.67
69436;SHT31;56625;54.322;18.582;2023-06-10T09:24:23;20.78;47.10
69436;SHT31;56625;54.322;18.582;2023-06-10T09:27:02;20.91;46.68
69436;SHT31;56625;54.322;18.582;2023-06-10T09:29:47;20.92;47.03
69436;SHT31;56625;54.322;18.582;2023-06-10T09:32:19;20.98;46.66
69436;SHT31;56625;54.322;18.582;2023-06-10T09:34:48;20.93;45.93
69436;SHT31;56625;54.322;18.582;2023-06-10T09:37:22;20.83;46.15
69436;SHT31;56625;54.322;18.582;2023-06-10T09:40:09;20.67;46.79
69436;SHT31;56625;54.322;18.582;2023-06-10T09:42:38;20.45;47.47
69436;SHT31;56625;54.322;18.582;2023-06-10T09:45:07;20.41;48.43
69436;SHT31;56625;54.322;18.582;2023-06-10T09:47:35;20.22;48.94
69436;SHT31;56625;54.322;18.582;2023-06-10T09:50:03;20.17;49.60
69436;SHT31;56625;54.322;18.582;2023-06-10T09:52:34;20.23;50.13
69436;SHT31;56625;54.322;18.582;2023-06-10T09:55:07;20.28;49.88
69436;SHT31;56625;54.322;18.582;2023-06-10T09:57:37;20.15;50.44
69436;SHT31;56625;54.322;18.582;2023-06-10T10:00:10;20.06;50.22
69436;SHT31;56625;54.322;18.582;2023-06-10T10:02:43;20.13;50.41
69436;SHT31;56625;54.322;18.582;2023-06-10T10:05:18;20.13;50.47
69436;SHT31;56625;54.322;18.582;2023-06-10T10:07:50;20.22;50.22
69436;SHT31;56625;54.322;18.582;2023-06-10T10:10:21;20.41;49.37
69436;SHT31;56625;54.322;18.582;2023-06-10T10:12:53;20.55;47.93
69436;SHT31;56625;54.322;18.582;2023-06-10T10:15:31;20.58;48.60
69436;SHT31;56625;54.322;18.582;2023-06-10T10:18:07;20.80;48.76
69436;SHT31;56625;54.322;18.582;2023-06-10T10:20:41;20.91;47.57
69436;SHT31;56625;54.322;18.582;2023-06-10T10:23:21;20.98;48.39
69436;SHT31;56625;54.322;18.582;2023-06-10T10:26:01;20.94;48.55
69436;SHT31;56625;54.322;18.582;2023-06-10T10:28:39;21.07;48.42
69436;SHT31;56625;54.322;18.582;2023-06-10T10:31:15;21.24;48.05
69436;SHT31;56625;54.322;18.582;2023-06-10T10:33:54;21.28;44.67
69436;SHT31;56625;54.322;18.582;2023-06-10T10:36:27;21.22;45.64
69436;SHT31;56625;54.322;18.582;2023-06-10T10:38:55;21.26;46.04
69436;SHT31;56625;54.322;18.582;2023-06-10T10:41:24;21.21;46.02
69436;SHT31;56625;54.322;18.582;2023-06-10T10:43:54;21.07;46.13
69436;SHT31;56625;54.322;18.582;2023-06-10T10:46:23;21.15;45.87
69436;SHT31;56625;54.322;18.582;2023-06-10T10:48:54;21.08;46.35
69436;SHT31;56625;54.322;18.582;2023-06-10T10:51:25;21.02;48.08
69436;SHT31;56625;54.322;18.582;2023-06-10T10:54:12;21.06;48.33
69436;SHT31;56625;54.322;18.582;2023-06-10T11:05:14;21.06;48.18
69436;SHT31;56625;54.322;18.582;2023-06-10T11:07:51;21.01;47.67
69436;SHT31;56625;54.322;18.582;2023-06-10T11:10:33;20.98;48.64
69436;SHT31;56625;54.322;18.582;2023-06-10T11:13:15;21.10;48.61
69436;SHT31;56625;54.322;18.582;2023-06-10T11:15:49;21.26;46.68
69436;SHT31;56625;54.322;18.582;2023-06-10T11:18:25;21.37;47.17
69436;SHT31;56625;54.322;18.582;2023-06-10T11:20:59;21.56;46.19
69436;SHT31;56625;54.322;18.582;2023-06-10T11:31:31;22.03;44.96
69436;SHT31;56625;54.322;18.582;2023-06-10T11:34:09;22.03;44.41
69436;SHT31;56625;54.322;18.582;2023-06-10T11:36:42;21.88;44.24
69436;SHT31;56625;54.322;18.582;2023-06-10T11:39:13;21.88;44.65
69436;SHT31;56625;54.322;18.582;2023-06-10T11:41:41;21.92;44.21
69436;SHT31;56625;54.322;18.582;2023-06-10T11:44:10;21.81;44.53
69436;SHT31;56625;54.322;18.582;2023-06-10T11:46:44;21.65;44.63
69436;SHT31;56625;54.322;18.582;2023-06-10T11:49:16;21.62;44.84
69436;SHT31;56625;54.322;18.582;2023-06-10T11:51:44;21.50;44.99
69436;SHT31;56625;54.322;18.582;2023-06-10T11:54:17;21.46;45.27
69436;SHT31;56625;54.322;18.582;2023-06-10T11:56:46;21.38;45.28
69436;SHT31;56625;54.322;18.582;2023-06-10T11:59:15;21.21;45.41
69436;SHT31;56625;54.322;18.582;2023-06-10T12:01:43;21.06;46.15
69436;SHT31;56625;54.322;18.582;2023-06-10T12:04:14;20.98;46.10
69436;SHT31;56625;54.322;18.582;2023-06-10T12:06:50;20.99;45.47
69436;SHT31;56625;54.322;18.582;2023-06-10T12:09:21;20.94;45.82
69436;SHT31;56625;54.322;18.582;2023-06-10T12:12:01;20.84;46.42
69436;SHT31;56625;54.322;18.582;2023-06-10T12:14:49;20.82;47.23
69436;SHT31;56625;54.322;18.582;2023-06-10T12:20:07;20.86;47.54
69436;SHT31;56625;54.322;18.582;2023-06-10T12:22:51;20.74;47.21
69436;SHT31;56625;54.322;18.582;2023-06-10T12:25:24;20.67;47.71
69436;SHT31;56625;54.322;18.582;2023-06-10T12:27:57;20.57;48.46
69436;SHT31;56625;54.322;18.582;2023-06-10T12:30:26;20.54;48.07
69436;SHT31;56625;54.322;18.582;2023-06-10T12:32:55;20.54;48.47
69436;SHT31;56625;54.322;18.582;2023-06-10T12:35:25;20.58;48.15
69436;SHT31;56625;54.322;18.582;2023-06-10T12:38:00;20.60;48.09
69436;SHT31;56625;54.322;18.582;2023-06-10T12:40:36;20.64;47.97
69436;SHT31;56625;54.322;18.582;2023-06-10T12:43:08;20.68;48.38
69436;SHT31;56625;54.322;18.582;2023-06-10T12:45:37;20.83;48.65
69436;SHT31;56625;54.322;18.582;2023-06-10T12:48:11;21.01;47.57
69436;SHT31;56625;54.322;18.582;2023-06-10T12:50:53;21.02;46.14
69436;SHT31;56625;54.322;18.582;2023-06-10T12:53:24;20.86;46.36
69436;SHT31;56625;54.322;18.582;2023-06-10T12:55:56;20.87;46.73
69436;SHT31;56625;54.322;18.582;2023-06-10T12:58:25;20.91;46.45
69436;SHT31;56625;54.322;18.582;2023-06-10T13:00:54;21.00;46.15
69436;SHT31;56625;54.322;18.582;2023-06-10T13:03:22;21.02;46.35
69436;SHT31;56625;54.322;18.582;2023-06-10T13:05:50;21.08;45.53
69436;SHT31;56625;54.322;18.582;2023-06-10T13:08:18;21.00;46.00
69436;SHT31;56625;54.322;18.582;2023-06-10T13:10:46;20.91;45.50
69436;SHT31;56625;54.322;18.582;2023-06-10T13:13:14;20.86;45.44
69436;SHT31;56625;54.322;18.582;2023-06-10T13:15:41;20.78;45.90
69436;SHT31;56625;54.322;18.582;2023-06-10T13:18:10;20.82;46.21
69436;SHT31;56625;54.322;18.582;2023-06-10T13:20:39;20.77;45.75
69436;SHT31;56625;54.322;18.582;2023-06-10T13:23:07;20.58;45.64
69436;SHT31;56625;54.322;18.582;2023-06-10T13:25:35;20.44;46.00
69436;SHT31;56625;54.322;18.582;2023-06-10T13:28:03;20.43;46.72
69436;SHT31;56625;54.322;18.582;2023-06-10T13:30:31;20.42;46.12
69436;SHT31;56625;54.322;18.582;2023-06-10T13:32:59;20.39;46.31
69436;SHT31;56625;54.322;18.582;2023-06-10T13:35:28;20.52;45.71
69436;SHT31;56625;54.322;18.582;2023-06-10T13:37:56;20.57;45.61
69436;SHT31;56625;54.322;18.582;2023-06-10T13:40:24;20.51;45.67
69436;SHT31;56625;54.322;18.582;2023-06-10T13:42:52;20.41;45.90
69436;SHT31;56625;54.322;18.582;2023-06-10T13:45:21;20.30;46.31
69436;SHT31;56625;54.322;18.582;2023-06-10T13:47:49;20.22;46.78
69436;SHT31;56625;54.322;18.582;2023-06-10T13:50:17;20.23;45.82
69436;SHT31;56625;54.322;18.582;2023-06-10T13:52:45;20.27;46.43
69436;SHT31;56625;54.322;18.582;2023-06-10T13:55:13;20.39;46.80
69436;SHT31;56625;54.322;18.582;2023-06-10T13:57:41;20.51;46.52
69436;SHT31;56625;54.322;18.582;2023-06-10T14:00:09;20.49;45.23
69436;SHT31;56625;54.322;18.582;2023-06-10T14:02:38;20.52;45.98
69436;SHT31;56625;54.322;18.582;2023-06-10T14:05:06;20.60;46.13
69436;SHT31;56625;54.322;18.582;2023-06-10T14:07:36;20.53;45.30
69436;SHT31;56625;54.322;18.582;2023-06-10T14:10:05;20.59;45.50
69436;SHT31;56625;54.322;18.582;2023-06-10T14:12:35;20.70;44.21
69436;SHT31;56625;54.322;18.582;2023-06-10T14:15:04;20.79;44.44
69436;SHT31;56625;54.322;18.582;2023-06-10T14:17:32;20.87;44.25
69436;SHT31;56625;54.322;18.582;2023-06-10T14:20:00;20.84;43.01
69436;SHT31;56625;54.322;18.582;2023-06-10T14:22:29;20.62;43.30
69436;SHT31;56625;54.322;18.582;2023-06-10T14:24:57;20.57;43.84
69436;SHT31;56625;54.322;18.582;2023-06-10T14:27:25;20.46;42.14
69436;SHT31;56625;54.322;18.582;2023-06-10T14:29:53;20.44;43.66
69436;SHT31;56625;54.322;18.582;2023-06-10T14:32:20;20.48;44.40
69436;SHT31;56625;54.322;18.582;2023-06-10T14:34:49;20.51;44.13
69436;SHT31;56625;54.322;18.582;2023-06-10T14:37:17;20.56;43.32
69436;SHT31;56625;54.322;18.582;2023-06-10T14:39:44;20.60;43.84
69436;SHT31;56625;54.322;18.582;2023-06-10T14:42:12;20.67;43.34
69436;SHT31;56625;54.322;18.582;2023-06-10T14:44:40;20.58;42.71
69436;SHT31;56625;54.322;18.582;2023-06-10T14:47:08;20.52;41.95
69436;SHT31;56625;54.322;18.582;2023-06-10T14:49:36;20.43;41.71
69436;SHT31;56625;54.322;18.582;2023-06-10T14:52:04;20.43;42.69
69436;SHT31;56625;54.322;18.582;2023-06-10T14:54:32;20.45;42.81
69436;SHT31;56625;54.322;18.582;2023-06-10T14:57:00;20.47;42.80
69436;SHT31;56625;54.322;18.582;2023-06-10T14:59:28;20.48;42.74
69436;SHT31;56625;54.322;18.582;2023-06-10T15:01:56;20.47;42.85
69436;SHT31;56625;54.322;18.582;2023-06-10T15:04:25;20.46;42.70
69436;SHT31;56625;54.322;18.582;2023-06-10T15:06:54;20.45;43.37
69436;SHT31;56625;54.322;18.582;2023-06-10T15:09:22;20.38;43.66
69436;SHT31;56625;54.322;18.582;2023-06-10T15:11:50;20.27;43.97
69436;SHT31;56625;54.322;18.582;2023-06-10T15:14:18;20.15;44.33
69436;SHT31;56625;54.322;18.582;2023-06-10T15:16:46;20.10;43.96
69436;SHT31;56625;54.322;18.582;2023-06-10T15:19:14;20.11;44.12
69436;SHT31;56625;54.322;18.582;2023-06-10T15:21:42;20.17;44.59
69436;SHT31;56625;54.322;18.582;2023-06-10T15:24:10;20.32;44.48
69436;SHT31;56625;54.322;18.582;2023-06-10T15:26:38;20.43;44.26
69436;SHT31;56625;54.322;18.582;2023-06-10T15:29:06;20.50;43.70
69436;SHT31;56625;54.322;18.582;2023-06-10T15:31:34;20.56;43.84
69436;SHT31;56625;54.322;18.582;2023-06-10T15:34:03;20.67;44.34
69436;SHT31;56625;54.322;18.582;2023-06-10T15:36:31;20.68;43.92
69436;SHT31;56625;54.322;18.582;2023-06-10T15:39:00;20.60;44.36
69436;SHT31;56625;54.322;18.582;2023-06-10T15:41:32;20.62;44.67
69436;SHT31;56625;54.322;18.582;2023-06-10T15:44:01;20.72;44.42
69436;SHT31;56625;54.322;18.582;2023-06-10T15:46:30;20.71;44.27
69436;SHT31;56625;54.322;18.582;2023-06-10T15:48:58;20.56;45.19
69436;SHT31;56625;54.322;18.582;2023-06-10T15:51:26;20.55;45.64
69436;SHT31;56625;54.322;18.582;2023-06-10T15:53:54;20.63;45.15
69436;SHT31;56625;54.322;18.582;2023-06-10T15:56:23;20.68;45.68
69436;SHT31;56625;54.322;18.582;2023-06-10T15:58:51;20.80;46.26